Michalis L — A8TZ8 — position and weather

sailwx.info

Track history (hours):
 
Tides and Currents Weather Stations Pressure Air Temp Water Temp Dewpoint Dewpoint Depression Visibility Wind Speed Wind Dir Waves Ship Positions

Michalis L

Last reported at 2017-Nov-11 15:57 UTC. Time now 2017-Nov-22 11:19 UTC.
Position S 34°27' E 018°20'.
Warning: this ship's position is 10 days out of date.

Length 230 m; draft 14.8 m.

Type: Cargo ship. MMSI: 636014462.

Date/timePositionNaut miles runAvg speedWind from/ knotsBaromVisibWave heightAir tempDewpointWater temp
2017-Nov-11 15:57S 34°27' E 018°20'2810.3
2017-Nov-11 13:13S 34°01' E 018°05'210.7
2017-Nov-11 13:00S 33°59' E 018°04'1110.7
2017-Nov-11 12:00S 33°49' E 018°01'910.6
2017-Nov-11 11:12S 33°41' E 017°59'211.0
2017-Nov-11 11:00S 33°39' E 017°58'610.8
2017-Nov-11 10:28S 33°33' E 017°56'  
2017-Nov-05 21:59S 33°58' E 018°04'1413.1
2017-Nov-05 20:56S 34°12' E 018°07'  
2017-Nov-03 09:27S 30°25' E 030°51'1014.1
2017-Nov-03 08:44S 30°16' E 030°57'313.2
2017-Nov-03 08:30S 30°14' E 030°59'612.3
2017-Nov-03 08:00S 30°08' E 031°02'611.7
2017-Nov-03 07:30S 30°03' E 031°04'611.9
2017-Nov-03 07:00S 29°57' E 031°07'6 9.2
2017-Nov-03 06:20S 29°52' E 031°04'2 5.9
2017-Nov-03 06:00S 29°53' E 031°02'1 1.4
2017-Nov-03 05:29S 29°52' E 031°02'0 0.0
2017-Nov-03 04:59S 29°52' E 031°02'0 0.0
2017-Nov-03 04:29S 29°52' E 031°02'0 0.0
2017-Nov-03 03:59S 29°52' E 031°02'0 0.0
2017-Nov-03 03:29S 29°52' E 031°02'0 0.0
2017-Nov-03 02:59S 29°52' E 031°02'0 0.0
2017-Nov-03 02:29S 29°52' E 031°02'0 0.0
2017-Nov-03 01:59S 29°52' E 031°02'0 0.0
2017-Nov-03 01:29S 29°52' E 031°02'0 0.0
2017-Nov-03 00:59S 29°52' E 031°02'0 0.0
2017-Nov-03 00:29S 29°52' E 031°02'0 0.0
2017-Nov-02 23:59S 29°52' E 031°02'0 0.0
2017-Nov-02 23:29S 29°52' E 031°02'0 0.0
2017-Nov-02 22:59S 29°52' E 031°02'0 0.0
2017-Nov-02 22:29S 29°52' E 031°02'0 0.0
2017-Nov-02 21:59S 29°52' E 031°02'0 0.0
2017-Nov-02 21:29S 29°52' E 031°02'0 0.0
2017-Nov-02 20:59S 29°52' E 031°02'0 0.0
2017-Nov-02 20:29S 29°52' E 031°02'0 0.7
2017-Nov-02 20:00S 29°52' E 031°02'3 5.3
2017-Nov-02 19:30S 29°51' E 031°04'3 6.1
2017-Nov-02 19:00S 29°48' E 031°06'0 0.9
2017-Nov-02 18:30S 29°48' E 031°07'1 1.3
2017-Nov-02 18:00S 29°48' E 031°07'0 0.9
2017-Nov-02 17:30S 29°48' E 031°08'2 3.6
2017-Nov-02 17:00S 29°47' E 031°10'1 1.3
2017-Nov-02 16:28S 29°47' E 031°10'0 0.0
2017-Nov-02 15:58S 29°47' E 031°10'0 0.1
2017-Nov-02 15:28S 29°47' E 031°10'0 0.1
2017-Nov-02 14:58S 29°47' E 031°10'0 0.0
2017-Nov-02 14:28S 29°47' E 031°10'0 0.0
2017-Nov-02 13:58S 29°47' E 031°10'0 0.0
2017-Nov-02 13:28S 29°47' E 031°10'0 0.0
2017-Nov-02 12:58S 29°47' E 031°10'0 0.1
2017-Nov-02 12:31S 29°47' E 031°10'2 4.0
2017-Nov-02 12:00S 29°48' E 031°11'612.1
2017-Nov-02 11:30S 29°47' E 031°18'612.7
2017-Nov-02 11:01S 29°45' E 031°25'612.8
2017-Nov-02 10:31S 29°44' E 031°32'713.0
2017-Nov-02 10:00S 29°42' E 031°39'714.1
2017-Nov-02 09:30S 29°41' E 031°47'714.5
2017-Nov-02 09:00S 29°39' E 031°55'714.2
2017-Nov-02 08:30S 29°37' E 032°03'713.6
2017-Nov-02 08:00S 29°35' E 032°11'713.8
2017-Nov-02 07:31S 29°33' E 032°18'713.6
2017-Nov-02 06:59S 29°31' E 032°26'913.2
2017-Nov-02 06:20S 29°29' E 032°36'513.0
2017-Nov-02 05:57S 29°28' E 032°41'713.0
2017-Nov-02 05:24S 29°26' E 032°49'512.6
2017-Nov-02 05:01S 29°25' E 032°55'712.4
2017-Nov-02 04:28S 29°23' E 033°02'612.3
2017-Nov-02 04:00S 29°21' E 033°08'612.3
2017-Nov-02 03:30S 29°20' E 033°15'612.4
2017-Nov-02 03:00S 29°18' E 033°22'612.5
2017-Nov-02 02:30S 29°17' E 033°29'612.5
2017-Nov-02 02:00S 29°15' E 033°36'612.5
2017-Nov-02 01:30S 29°13' E 033°43'612.7
2017-Nov-02 01:00S 29°12' E 033°50'612.7
2017-Nov-02 00:30S 29°10' E 033°57'612.9
2017-Nov-02 00:00S 29°08' E 034°04'613.0
2017-Nov-01 23:31S 29°07' E 034°11'  
Track history (hours):
 
Tides and Currents Weather Stations Pressure Air Temp Water Temp Dewpoint Dewpoint Depression Visibility Wind Speed Wind Dir Waves Ship Positions

Michalis L

Last reported at 2017-Nov-11 15:57 UTC. Time now 2017-Nov-22 11:19 UTC.
Position S 34°27' E 018°20'.
Warning: this ship's position is 10 days out of date.

Length 230 m; draft 14.8 m.

Type: Cargo ship. MMSI: 636014462.

Date/timePositionNaut miles runAvg speedWind from/ knotsBaromVisibWave heightAir tempDewpointWater temp
2017-Nov-11 15:57S 34°27' E 018°20'2810.3
2017-Nov-11 13:13S 34°01' E 018°05'210.7
2017-Nov-11 13:00S 33°59' E 018°04'1110.7
2017-Nov-11 12:00S 33°49' E 018°01'910.6
2017-Nov-11 11:12S 33°41' E 017°59'211.0
2017-Nov-11 11:00S 33°39' E 017°58'610.8
2017-Nov-11 10:28S 33°33' E 017°56'  
2017-Nov-05 21:59S 33°58' E 018°04'1413.1
2017-Nov-05 20:56S 34°12' E 018°07'  
2017-Nov-03 09:27S 30°25' E 030°51'1014.1
2017-Nov-03 08:44S 30°16' E 030°57'313.2
2017-Nov-03 08:30S 30°14' E 030°59'612.3
2017-Nov-03 08:00S 30°08' E 031°02'611.7
2017-Nov-03 07:30S 30°03' E 031°04'611.9
2017-Nov-03 07:00S 29°57' E 031°07'6 9.2
2017-Nov-03 06:20S 29°52' E 031°04'2 5.9
2017-Nov-03 06:00S 29°53' E 031°02'1 1.4
2017-Nov-03 05:29S 29°52' E 031°02'0 0.0
2017-Nov-03 04:59S 29°52' E 031°02'0 0.0
2017-Nov-03 04:29S 29°52' E 031°02'0 0.0
2017-Nov-03 03:59S 29°52' E 031°02'0 0.0
2017-Nov-03 03:29S 29°52' E 031°02'0 0.0
2017-Nov-03 02:59S 29°52' E 031°02'0 0.0
2017-Nov-03 02:29S 29°52' E 031°02'0 0.0
2017-Nov-03 01:59S 29°52' E 031°02'0 0.0
2017-Nov-03 01:29S 29°52' E 031°02'0 0.0
2017-Nov-03 00:59S 29°52' E 031°02'0 0.0
2017-Nov-03 00:29S 29°52' E 031°02'0 0.0
2017-Nov-02 23:59S 29°52' E 031°02'0 0.0
2017-Nov-02 23:29S 29°52' E 031°02'0 0.0
2017-Nov-02 22:59S 29°52' E 031°02'0 0.0
2017-Nov-02 22:29S 29°52' E 031°02'0 0.0
2017-Nov-02 21:59S 29°52' E 031°02'0 0.0
2017-Nov-02 21:29S 29°52' E 031°02'0 0.0
2017-Nov-02 20:59S 29°52' E 031°02'0 0.0
2017-Nov-02 20:29S 29°52' E 031°02'0 0.7
2017-Nov-02 20:00S 29°52' E 031°02'3 5.3
2017-Nov-02 19:30S 29°51' E 031°04'3 6.1
2017-Nov-02 19:00S 29°48' E 031°06'0 0.9
2017-Nov-02 18:30S 29°48' E 031°07'1 1.3
2017-Nov-02 18:00S 29°48' E 031°07'0 0.9
2017-Nov-02 17:30S 29°48' E 031°08'2 3.6
2017-Nov-02 17:00S 29°47' E 031°10'1 1.3
2017-Nov-02 16:28S 29°47' E 031°10'0 0.0
2017-Nov-02 15:58S 29°47' E 031°10'0 0.1
2017-Nov-02 15:28S 29°47' E 031°10'0 0.1
2017-Nov-02 14:58S 29°47' E 031°10'0 0.0
2017-Nov-02 14:28S 29°47' E 031°10'0 0.0
2017-Nov-02 13:58S 29°47' E 031°10'0 0.0
2017-Nov-02 13:28S 29°47' E 031°10'0 0.0
2017-Nov-02 12:58S 29°47' E 031°10'0 0.1
2017-Nov-02 12:31S 29°47' E 031°10'2 4.0
2017-Nov-02 12:00S 29°48' E 031°11'612.1
2017-Nov-02 11:30S 29°47' E 031°18'612.7
2017-Nov-02 11:01S 29°45' E 031°25'612.8
2017-Nov-02 10:31S 29°44' E 031°32'713.0
2017-Nov-02 10:00S 29°42' E 031°39'714.1
2017-Nov-02 09:30S 29°41' E 031°47'714.5
2017-Nov-02 09:00S 29°39' E 031°55'714.2
2017-Nov-02 08:30S 29°37' E 032°03'713.6
2017-Nov-02 08:00S 29°35' E 032°11'713.8
2017-Nov-02 07:31S 29°33' E 032°18'713.6
2017-Nov-02 06:59S 29°31' E 032°26'913.2
2017-Nov-02 06:20S 29°29' E 032°36'513.0
2017-Nov-02 05:57S 29°28' E 032°41'713.0
2017-Nov-02 05:24S 29°26' E 032°49'512.6
2017-Nov-02 05:01S 29°25' E 032°55'712.4
2017-Nov-02 04:28S 29°23' E 033°02'612.3
2017-Nov-02 04:00S 29°21' E 033°08'612.3
2017-Nov-02 03:30S 29°20' E 033°15'612.4
2017-Nov-02 03:00S 29°18' E 033°22'612.5
2017-Nov-02 02:30S 29°17' E 033°29'612.5
2017-Nov-02 02:00S 29°15' E 033°36'612.5
2017-Nov-02 01:30S 29°13' E 033°43'612.7
2017-Nov-02 01:00S 29°12' E 033°50'612.7
2017-Nov-02 00:30S 29°10' E 033°57'612.9
2017-Nov-02 00:00S 29°08' E 034°04'613.0
2017-Nov-01 23:31S 29°07' E 034°11'  

Dump ship's entire track history